Terminal Aerodrome Forecast
Issued by NWS

Home | Current Version | Previous Version | Text Only | Print | Product List | Glossary On
Versions: 1 2 3 4 5 6 7 8 9 10 11 12 13 14 15 16 17
000
FTUS44 KTSA 202300
TAFRVS
TAF
KRVS 202325Z 2100/2124 21004KT P6SM OVC025
     FM210300 17005KT P6SM OVC015
     FM210900 18005KT 4SM BR OVC015
     FM211200 18005KT 3SM BR OVC007
     FM211800 17008KT 4SM BR OVC015=

USA.gov is the U.S. government's official web portal to all federal, state and local government web resources and services.